createdAt,value
2022-12-11T15:02:55.181Z,20.58
2022-12-11T15:05:41.119Z,20.44
2022-12-11T15:08:27.200Z,20.29
2022-12-11T15:11:12.734Z,20.15
2022-12-11T15:13:57.631Z,20.10
2022-12-11T15:16:42.633Z,19.99
2022-12-11T15:19:28.005Z,19.93
2022-12-11T15:22:13.082Z,19.94
2022-12-11T15:24:57.939Z,19.84
2022-12-11T15:27:43.020Z,19.81
2022-12-11T15:30:28.032Z,19.71
2022-12-11T15:33:13.412Z,19.70
2022-12-11T15:35:58.268Z,19.66
2022-12-11T15:38:43.219Z,19.61
2022-12-11T15:41:28.283Z,19.55
2022-12-11T15:44:13.894Z,19.49
2022-12-11T15:46:59.171Z,19.46
2022-12-11T15:49:43.988Z,19.41
2022-12-11T15:52:29.204Z,19.42
2022-12-11T15:55:14.731Z,19.40
2022-12-11T15:58:00.090Z,19.35
2022-12-11T16:00:45.541Z,19.30
2022-12-11T16:03:30.431Z,19.32
2022-12-11T16:06:15.367Z,19.24
2022-12-11T16:09:00.211Z,19.27
2022-12-11T16:11:45.270Z,19.21
2022-12-11T16:14:30.538Z,19.15
2022-12-11T16:17:15.769Z,19.20
2022-12-11T16:20:01.009Z,19.06
2022-12-11T16:22:46.327Z,19.16
2022-12-11T16:25:31.618Z,19.13
2022-12-11T16:28:16.951Z,19.03
2022-12-11T16:31:01.905Z,19.10
2022-12-11T16:33:47.206Z,19.05
2022-12-11T16:36:32.359Z,19.00
2022-12-11T16:39:17.915Z,19.03
2022-12-11T16:42:03.301Z,19.01
2022-12-11T16:44:48.660Z,18.96
2022-12-11T16:47:33.821Z,18.96
2022-12-11T16:50:18.738Z,18.93
2022-12-11T16:53:03.658Z,18.94
2022-12-11T16:55:48.713Z,18.89
2022-12-11T16:58:33.926Z,18.79
2022-12-11T17:01:19.184Z,18.67
2022-12-11T17:04:04.075Z,18.72
2022-12-11T17:06:48.841Z,18.68
2022-12-11T17:09:33.856Z,18.67
2022-12-11T17:12:18.772Z,18.64
2022-12-11T17:15:03.929Z,18.73
2022-12-11T17:17:49.328Z,18.64
2022-12-11T17:20:34.197Z,18.68
2022-12-11T17:23:19.191Z,18.66
2022-12-11T17:26:04.229Z,18.67
2022-12-11T17:28:49.786Z,18.65
2022-12-11T17:31:35.059Z,18.62
2022-12-11T17:34:20.347Z,18.58
2022-12-11T17:37:05.611Z,18.61
2022-12-11T17:39:50.589Z,18.67
2022-12-11T17:42:35.665Z,18.73
2022-12-11T17:45:20.538Z,18.73
2022-12-11T17:48:05.439Z,18.74
2022-12-11T17:50:50.551Z,18.75
2022-12-11T17:53:35.864Z,18.73
2022-12-11T17:56:20.844Z,18.76
2022-12-11T17:59:05.898Z,18.75
2022-12-11T18:01:51.028Z,18.71
2022-12-11T18:04:36.252Z,18.71
2022-12-11T18:07:21.754Z,18.82
2022-12-11T18:10:06.627Z,18.78
2022-12-11T18:12:51.798Z,18.80
2022-12-11T18:15:37.265Z,18.80
2022-12-11T18:18:22.500Z,18.80
2022-12-11T18:21:07.475Z,18.79
2022-12-11T18:23:52.335Z,18.78
2022-12-11T18:26:37.304Z,18.81
2022-12-11T18:29:22.418Z,18.79
2022-12-11T18:32:07.944Z,18.77
2022-12-11T18:34:53.302Z,18.77
2022-12-11T18:37:38.249Z,18.76
2022-12-11T18:40:23.054Z,18.78
2022-12-11T18:43:07.994Z,18.78
2022-12-11T18:45:52.955Z,18.79
2022-12-11T18:48:38.172Z,18.83
2022-12-11T18:51:23.755Z,18.82
2022-12-11T18:54:08.795Z,18.79
2022-12-11T18:56:54.562Z,18.75
2022-12-11T18:59:39.768Z,18.76
2022-12-11T19:02:25.061Z,18.79
2022-12-11T19:05:10.526Z,18.75
2022-12-11T19:07:56.556Z,18.79
2022-12-11T19:10:41.645Z,18.76
2022-12-11T19:13:26.964Z,18.76
2022-12-11T19:16:12.321Z,18.73
2022-12-11T19:18:58.013Z,18.70
2022-12-11T19:21:42.807Z,18.70
2022-12-11T19:24:28.002Z,18.65
2022-12-11T19:27:13.884Z,18.63
2022-12-11T19:29:59.509Z,18.62
2022-12-11T19:32:45.386Z,18.61
2022-12-11T19:35:30.204Z,18.56
2022-12-11T19:38:15.245Z,18.56
2022-12-11T19:41:00.584Z,18.55
2022-12-11T19:43:45.750Z,18.55
2022-12-11T19:46:31.326Z,18.54
2022-12-11T19:49:16.641Z,18.52
2022-12-11T19:52:02.001Z,18.50
2022-12-11T19:54:47.203Z,18.52
2022-12-11T19:57:32.670Z,18.54
2022-12-11T20:00:17.753Z,18.51
2022-12-11T20:03:03.203Z,18.51
2022-12-11T20:05:48.652Z,18.50
2022-12-11T20:08:49.493Z,18.49
2022-12-11T20:11:35.203Z,18.49
2022-12-11T20:14:20.601Z,18.50
2022-12-11T20:17:14.259Z,18.50
2022-12-11T20:19:59.825Z,18.49
2022-12-11T20:22:45.224Z,18.45
2022-12-11T20:25:30.059Z,18.43
2022-12-11T20:28:14.944Z,18.45
2022-12-11T20:30:59.988Z,18.45
2022-12-11T20:33:45.485Z,18.45
2022-12-11T20:36:30.421Z,18.41
2022-12-11T20:39:15.690Z,18.40
2022-12-11T20:42:02.195Z,18.41
2022-12-11T20:44:49.389Z,18.42
2022-12-11T20:47:34.916Z,18.41
2022-12-11T20:50:20.155Z,18.42
